sensor_id;sensor_type;location;lat;lon;timestamp;temperature;humidity
770;DHT22;368;48.698;9.116;2023-02-15T00:01:30;-1.30;99.90
770;DHT22;368;48.698;9.116;2023-02-15T00:03:56;-1.20;99.90
770;DHT22;368;48.698;9.116;2023-02-15T00:06:23;-1.10;99.90
770;DHT22;368;48.698;9.116;2023-02-15T00:08:50;-1.10;99.90
770;DHT22;368;48.698;9.116;2023-02-15T00:11:18;-1.10;99.90
770;DHT22;368;48.698;9.116;2023-02-15T00:14:07;-1.30;99.90
770;DHT22;368;48.698;9.116;2023-02-15T00:16:35;-1.30;99.90
770;DHT22;368;48.698;9.116;2023-02-15T00:19:03;-1.40;99.90
770;DHT22;368;48.698;9.116;2023-02-15T00:21:31;-1.20;99.90
770;DHT22;368;48.698;9.116;2023-02-15T00:23:59;-1.20;99.90
770;DHT22;368;48.698;9.116;2023-02-15T00:26:26;-1.00;99.90
770;DHT22;368;48.698;9.116;2023-02-15T00:28:54;-0.90;99.90
770;DHT22;368;48.698;9.116;2023-02-15T00:31:22;-1.20;99.90
770;DHT22;368;48.698;9.116;2023-02-15T00:33:49;-1.10;99.90
770;DHT22;368;48.698;9.116;2023-02-15T00:36:15;-1.20;99.90
770;DHT22;368;48.698;9.116;2023-02-15T00:38:43;-1.20;99.90
770;DHT22;368;48.698;9.116;2023-02-15T00:41:10;-1.20;99.90
770;DHT22;368;48.698;9.116;2023-02-15T00:43:36;-1.30;99.90
770;DHT22;368;48.698;9.116;2023-02-15T00:46:04;-1.30;99.90
770;DHT22;368;48.698;9.116;2023-02-15T00:48:32;-1.20;99.90
770;DHT22;368;48.698;9.116;2023-02-15T00:51:00;-1.00;99.90
770;DHT22;368;48.698;9.116;2023-02-15T00:53:28;-1.20;99.90
770;DHT22;368;48.698;9.116;2023-02-15T00:55:55;-0.80;99.90
770;DHT22;368;48.698;9.116;2023-02-15T00:58:22;-1.10;99.90
770;DHT22;368;48.698;9.116;2023-02-15T01:00:49;-0.90;99.90
770;DHT22;368;48.698;9.116;2023-02-15T01:03:17;-1.20;99.90
770;DHT22;368;48.698;9.116;2023-02-15T01:05:47;-1.20;99.90
770;DHT22;368;48.698;9.116;2023-02-15T01:08:14;-1.40;99.90
770;DHT22;368;48.698;9.116;2023-02-15T01:10:41;-1.30;99.90
770;DHT22;368;48.698;9.116;2023-02-15T01:13:09;-1.50;99.90
770;DHT22;368;48.698;9.116;2023-02-15T01:15:36;-1.60;99.90
770;DHT22;368;48.698;9.116;2023-02-15T01:18:03;-1.50;99.90
770;DHT22;368;48.698;9.116;2023-02-15T01:20:33;-1.40;99.90
770;DHT22;368;48.698;9.116;2023-02-15T01:23:02;-1.60;99.90
770;DHT22;368;48.698;9.116;2023-02-15T01:25:28;-1.50;99.90
770;DHT22;368;48.698;9.116;2023-02-15T01:27:55;-1.60;99.90
770;DHT22;368;48.698;9.116;2023-02-15T01:30:22;-1.50;99.90
770;DHT22;368;48.698;9.116;2023-02-15T01:32:49;-1.50;99.90
770;DHT22;368;48.698;9.116;2023-02-15T01:35:15;-1.40;99.90
770;DHT22;368;48.698;9.116;2023-02-15T01:37:42;-1.30;99.90
770;DHT22;368;48.698;9.116;2023-02-15T01:40:14;-1.50;99.90
770;DHT22;368;48.698;9.116;2023-02-15T01:42:41;-1.70;99.90
770;DHT22;368;48.698;9.116;2023-02-15T01:45:19;-1.80;99.90
770;DHT22;368;48.698;9.116;2023-02-15T01:47:49;-1.60;99.90
770;DHT22;368;48.698;9.116;2023-02-15T01:50:21;-1.70;99.90
770;DHT22;368;48.698;9.116;2023-02-15T01:52:52;-1.70;99.90
770;DHT22;368;48.698;9.116;2023-02-15T01:55:25;-1.80;99.90
770;DHT22;368;48.698;9.116;2023-02-15T01:57:52;-1.70;99.90
770;DHT22;368;48.698;9.116;2023-02-15T02:00:20;-1.60;99.90
770;DHT22;368;48.698;9.116;2023-02-15T02:02:50;-1.60;99.90
770;DHT22;368;48.698;9.116;2023-02-15T02:05:17;-1.50;99.90
770;DHT22;368;48.698;9.116;2023-02-15T02:07:45;-1.50;99.90
770;DHT22;368;48.698;9.116;2023-02-15T02:10:14;-1.70;99.90
770;DHT22;368;48.698;9.116;2023-02-15T02:12:44;-1.90;99.90
770;DHT22;368;48.698;9.116;2023-02-15T02:15:12;-1.70;99.90
770;DHT22;368;48.698;9.116;2023-02-15T02:17:48;-1.90;99.90
770;DHT22;368;48.698;9.116;2023-02-15T02:23:39;-1.90;99.90
770;DHT22;368;48.698;9.116;2023-02-15T02:29:37;-1.90;99.90
770;DHT22;368;48.698;9.116;2023-02-15T02:32:33;-1.70;99.90
770;DHT22;368;48.698;9.116;2023-02-15T02:35:08;-1.90;99.90
770;DHT22;368;48.698;9.116;2023-02-15T02:37:44;-1.80;99.90
770;DHT22;368;48.698;9.116;2023-02-15T02:40:16;-1.90;99.90
770;DHT22;368;48.698;9.116;2023-02-15T02:42:49;-1.70;99.90
770;DHT22;368;48.698;9.116;2023-02-15T02:45:22;-2.00;99.90
770;DHT22;368;48.698;9.116;2023-02-15T02:47:53;-1.70;99.90
770;DHT22;368;48.698;9.116;2023-02-15T02:50:26;-1.50;99.90
770;DHT22;368;48.698;9.116;2023-02-15T02:52:55;-1.50;99.90
770;DHT22;368;48.698;9.116;2023-02-15T02:55:25;-1.70;99.90
770;DHT22;368;48.698;9.116;2023-02-15T02:57:59;-1.80;99.90
770;DHT22;368;48.698;9.116;2023-02-15T03:00:31;-2.00;99.90
770;DHT22;368;48.698;9.116;2023-02-15T03:03:02;-1.90;99.90
770;DHT22;368;48.698;9.116;2023-02-15T03:05:33;-1.80;99.90
770;DHT22;368;48.698;9.116;2023-02-15T03:08:02;-2.00;99.90
770;DHT22;368;48.698;9.116;2023-02-15T03:10:32;-2.00;99.90
770;DHT22;368;48.698;9.116;2023-02-15T03:13:01;-1.80;99.90
770;DHT22;368;48.698;9.116;2023-02-15T03:15:31;-1.90;99.90
770;DHT22;368;48.698;9.116;2023-02-15T03:18:13;-1.80;99.90
770;DHT22;368;48.698;9.116;2023-02-15T03:20:44;-1.70;99.90
770;DHT22;368;48.698;9.116;2023-02-15T03:23:14;-1.40;99.90
770;DHT22;368;48.698;9.116;2023-02-15T03:25:45;-1.90;99.90
770;DHT22;368;48.698;9.116;2023-02-15T03:28:15;-1.90;99.90
770;DHT22;368;48.698;9.116;2023-02-15T03:30:45;-2.10;99.90
770;DHT22;368;48.698;9.116;2023-02-15T03:33:13;-2.10;99.90
770;DHT22;368;48.698;9.116;2023-02-15T03:35:48;-2.10;99.90
770;DHT22;368;48.698;9.116;2023-02-15T03:38:20;-2.10;99.90
770;DHT22;368;48.698;9.116;2023-02-15T03:40:50;-2.20;99.90
770;DHT22;368;48.698;9.116;2023-02-15T03:43:44;-2.00;99.90
770;DHT22;368;48.698;9.116;2023-02-15T03:46:15;-2.00;99.90
770;DHT22;368;48.698;9.116;2023-02-15T03:48:46;-2.00;99.90
770;DHT22;368;48.698;9.116;2023-02-15T03:51:18;-2.20;99.90
770;DHT22;368;48.698;9.116;2023-02-15T03:54:03;-2.20;99.90
770;DHT22;368;48.698;9.116;2023-02-15T03:56:30;-2.40;99.90
770;DHT22;368;48.698;9.116;2023-02-15T03:58:57;-2.40;99.90
770;DHT22;368;48.698;9.116;2023-02-15T04:01:47;-2.40;99.90
770;DHT22;368;48.698;9.116;2023-02-15T04:04:26;-2.40;99.90
770;DHT22;368;48.698;9.116;2023-02-15T04:06:56;-2.50;99.90
770;DHT22;368;48.698;9.116;2023-02-15T04:09:23;-2.50;99.90
770;DHT22;368;48.698;9.116;2023-02-15T04:12:08;-2.40;99.90
770;DHT22;368;48.698;9.116;2023-02-15T04:14:35;-2.30;99.90
770;DHT22;368;48.698;9.116;2023-02-15T04:17:19;-2.30;99.90
770;DHT22;368;48.698;9.116;2023-02-15T04:19:46;-2.40;99.90
770;DHT22;368;48.698;9.116;2023-02-15T04:22:32;-2.40;99.90
770;DHT22;368;48.698;9.116;2023-02-15T04:25:16;-2.40;99.90
770;DHT22;368;48.698;9.116;2023-02-15T04:27:45;-2.30;99.90
770;DHT22;368;48.698;9.116;2023-02-15T04:30:14;-2.30;99.90
770;DHT22;368;48.698;9.116;2023-02-15T04:32:42;-2.20;99.90
770;DHT22;368;48.698;9.116;2023-02-15T04:35:09;-2.20;99.90
770;DHT22;368;48.698;9.116;2023-02-15T04:37:37;-2.10;99.90
770;DHT22;368;48.698;9.116;2023-02-15T04:40:05;-2.30;99.90
770;DHT22;368;48.698;9.116;2023-02-15T04:42:33;-2.30;99.90
770;DHT22;368;48.698;9.116;2023-02-15T04:45:00;-2.40;99.90
770;DHT22;368;48.698;9.116;2023-02-15T04:47:27;-2.30;99.90
770;DHT22;368;48.698;9.116;2023-02-15T04:49:54;-2.30;99.90
770;DHT22;368;48.698;9.116;2023-02-15T04:52:20;-2.20;99.90
770;DHT22;368;48.698;9.116;2023-02-15T04:54:48;-2.50;99.90
770;DHT22;368;48.698;9.116;2023-02-15T04:57:15;-2.60;99.90
770;DHT22;368;48.698;9.116;2023-02-15T04:59:42;-2.50;99.90
770;DHT22;368;48.698;9.116;2023-02-15T05:02:09;-2.60;99.90
770;DHT22;368;48.698;9.116;2023-02-15T05:04:36;-2.60;99.90
770;DHT22;368;48.698;9.116;2023-02-15T05:07:02;-2.40;99.90
770;DHT22;368;48.698;9.116;2023-02-15T05:09:29;-2.10;99.90
770;DHT22;368;48.698;9.116;2023-02-15T05:11:57;-2.00;99.90
770;DHT22;368;48.698;9.116;2023-02-15T05:14:24;-2.00;99.90
770;DHT22;368;48.698;9.116;2023-02-15T05:16:51;-2.10;99.90
770;DHT22;368;48.698;9.116;2023-02-15T05:19:19;-2.30;99.90
770;DHT22;368;48.698;9.116;2023-02-15T05:21:46;-2.40;99.90
770;DHT22;368;48.698;9.116;2023-02-15T05:24:12;-2.30;99.90
770;DHT22;368;48.698;9.116;2023-02-15T05:26:58;-2.70;99.90
770;DHT22;368;48.698;9.116;2023-02-15T05:29:51;-2.80;99.90
770;DHT22;368;48.698;9.116;2023-02-15T05:32:17;-2.70;99.90
770;DHT22;368;48.698;9.116;2023-02-15T05:34:44;-2.60;99.90
770;DHT22;368;48.698;9.116;2023-02-15T05:37:11;-2.70;99.90
770;DHT22;368;48.698;9.116;2023-02-15T05:39:38;-3.00;99.90
770;DHT22;368;48.698;9.116;2023-02-15T05:42:06;-2.70;99.90
770;DHT22;368;48.698;9.116;2023-02-15T05:44:32;-2.80;99.90
770;DHT22;368;48.698;9.116;2023-02-15T05:46:59;-3.00;99.90
770;DHT22;368;48.698;9.116;2023-02-15T05:49:28;-2.50;99.90
770;DHT22;368;48.698;9.116;2023-02-15T05:51:55;-2.60;99.90
770;DHT22;368;48.698;9.116;2023-02-15T05:54:22;-2.70;99.90
770;DHT22;368;48.698;9.116;2023-02-15T05:56:49;-2.70;99.90
770;DHT22;368;48.698;9.116;2023-02-15T05:59:17;-2.80;99.90
770;DHT22;368;48.698;9.116;2023-02-15T06:01:44;-2.80;99.90
770;DHT22;368;48.698;9.116;2023-02-15T06:04:11;-2.50;99.90
770;DHT22;368;48.698;9.116;2023-02-15T06:06:38;-2.40;99.90
770;DHT22;368;48.698;9.116;2023-02-15T06:09:05;-2.60;99.90
770;DHT22;368;48.698;9.116;2023-02-15T06:11:32;-2.30;99.90
770;DHT22;368;48.698;9.116;2023-02-15T06:13:59;-2.50;99.90
770;DHT22;368;48.698;9.116;2023-02-15T06:16:27;-2.50;99.90
770;DHT22;368;48.698;9.116;2023-02-15T06:18:53;-2.60;99.90
770;DHT22;368;48.698;9.116;2023-02-15T06:21:20;-2.50;99.90
770;DHT22;368;48.698;9.116;2023-02-15T06:23:47;-2.70;99.90
770;DHT22;368;48.698;9.116;2023-02-15T06:26:14;-2.40;99.90
770;DHT22;368;48.698;9.116;2023-02-15T06:28:41;-2.20;99.90
770;DHT22;368;48.698;9.116;2023-02-15T06:31:07;-2.00;99.90
770;DHT22;368;48.698;9.116;2023-02-15T06:33:36;-2.00;99.90
770;DHT22;368;48.698;9.116;2023-02-15T06:36:03;-2.10;99.90
770;DHT22;368;48.698;9.116;2023-02-15T06:38:31;-2.20;99.90
770;DHT22;368;48.698;9.116;2023-02-15T06:40:57;-2.20;99.90
770;DHT22;368;48.698;9.116;2023-02-15T06:43:24;-2.20;99.90
770;DHT22;368;48.698;9.116;2023-02-15T06:45:51;-2.30;99.90
770;DHT22;368;48.698;9.116;2023-02-15T06:48:18;-2.30;99.90
770;DHT22;368;48.698;9.116;2023-02-15T06:50:46;-2.00;99.90
770;DHT22;368;48.698;9.116;2023-02-15T06:53:13;-1.90;99.90
770;DHT22;368;48.698;9.116;2023-02-15T06:55:39;-2.00;99.90
770;DHT22;368;48.698;9.116;2023-02-15T06:58:06;-1.80;99.90
770;DHT22;368;48.698;9.116;2023-02-15T07:00:33;-1.90;99.90
770;DHT22;368;48.698;9.116;2023-02-15T07:03:00;-1.90;99.90
770;DHT22;368;48.698;9.116;2023-02-15T07:05:28;-2.20;99.90
770;DHT22;368;48.698;9.116;2023-02-15T07:07:57;-2.10;99.90
770;DHT22;368;48.698;9.116;2023-02-15T07:10:25;-2.10;99.90
770;DHT22;368;48.698;9.116;2023-02-15T07:12:52;-2.00;99.90
770;DHT22;368;48.698;9.116;2023-02-15T07:15:19;-2.00;99.90
770;DHT22;368;48.698;9.116;2023-02-15T07:17:47;-2.00;99.90
770;DHT22;368;48.698;9.116;2023-02-15T07:20:17;-2.00;99.90
770;DHT22;368;48.698;9.116;2023-02-15T07:22:45;-1.80;99.90
770;DHT22;368;48.698;9.116;2023-02-15T07:25:14;-1.90;99.90
770;DHT22;368;48.698;9.116;2023-02-15T07:27:41;-2.00;99.90
770;DHT22;368;48.698;9.116;2023-02-15T07:30:12;-1.90;99.90
770;DHT22;368;48.698;9.116;2023-02-15T07:32:39;-1.80;99.90
770;DHT22;368;48.698;9.116;2023-02-15T07:35:26;-1.80;99.90
770;DHT22;368;48.698;9.116;2023-02-15T07:37:53;-1.60;99.90
770;DHT22;368;48.698;9.116;2023-02-15T07:40:21;-1.50;99.90
770;DHT22;368;48.698;9.116;2023-02-15T07:42:51;-1.40;99.90
770;DHT22;368;48.698;9.116;2023-02-15T07:45:20;-1.50;99.90
770;DHT22;368;48.698;9.116;2023-02-15T07:47:47;-1.30;99.90
770;DHT22;368;48.698;9.116;2023-02-15T07:50:14;-1.20;99.90
770;DHT22;368;48.698;9.116;2023-02-15T07:52:41;-1.20;99.90
770;DHT22;368;48.698;9.116;2023-02-15T07:55:08;-1.00;99.90
770;DHT22;368;48.698;9.116;2023-02-15T07:57:42;-0.70;99.90
770;DHT22;368;48.698;9.116;2023-02-15T08:00:10;-0.40;99.90
770;DHT22;368;48.698;9.116;2023-02-15T08:02:38;-0.50;99.90
770;DHT22;368;48.698;9.116;2023-02-15T08:05:05;-0.80;99.90
770;DHT22;368;48.698;9.116;2023-02-15T08:07:32;-0.70;99.90
770;DHT22;368;48.698;9.116;2023-02-15T08:09:59;-0.30;99.90
770;DHT22;368;48.698;9.116;2023-02-15T08:12:26;-0.30;99.90
770;DHT22;368;48.698;9.116;2023-02-15T08:14:54;0.00;99.90
770;DHT22;368;48.698;9.116;2023-02-15T08:17:21;0.10;99.90
770;DHT22;368;48.698;9.116;2023-02-15T08:19:49;0.40;99.90
770;DHT22;368;48.698;9.116;2023-02-15T08:22:15;0.20;99.90
770;DHT22;368;48.698;9.116;2023-02-15T08:24:42;0.10;99.90
770;DHT22;368;48.698;9.116;2023-02-15T08:27:10;0.30;99.90
770;DHT22;368;48.698;9.116;2023-02-15T08:29:37;0.00;99.90
770;DHT22;368;48.698;9.116;2023-02-15T08:32:08;0.20;99.90
770;DHT22;368;48.698;9.116;2023-02-15T08:34:37;0.50;99.90
770;DHT22;368;48.698;9.116;2023-02-15T08:37:04;0.50;99.90
770;DHT22;368;48.698;9.116;2023-02-15T08:39:32;0.70;99.90
770;DHT22;368;48.698;9.116;2023-02-15T08:41:58;0.70;99.90
770;DHT22;368;48.698;9.116;2023-02-15T08:44:26;0.70;99.90
770;DHT22;368;48.698;9.116;2023-02-15T08:46:52;1.00;99.90
770;DHT22;368;48.698;9.116;2023-02-15T08:49:21;1.60;99.90
770;DHT22;368;48.698;9.116;2023-02-15T08:51:49;2.00;99.90
770;DHT22;368;48.698;9.116;2023-02-15T08:54:18;2.30;99.90
770;DHT22;368;48.698;9.116;2023-02-15T08:56:45;2.50;99.90
770;DHT22;368;48.698;9.116;2023-02-15T08:59:13;2.60;99.90
770;DHT22;368;48.698;9.116;2023-02-15T09:01:41;2.50;99.90
770;DHT22;368;48.698;9.116;2023-02-15T09:04:09;2.70;99.90
770;DHT22;368;48.698;9.116;2023-02-15T09:06:38;2.80;99.90
770;DHT22;368;48.698;9.116;2023-02-15T09:09:05;2.90;99.90
770;DHT22;368;48.698;9.116;2023-02-15T09:11:34;3.00;99.90
770;DHT22;368;48.698;9.116;2023-02-15T09:14:03;2.90;99.90
770;DHT22;368;48.698;9.116;2023-02-15T09:16:32;3.10;99.90
770;DHT22;368;48.698;9.116;2023-02-15T09:18:59;3.10;99.90
770;DHT22;368;48.698;9.116;2023-02-15T09:21:28;3.10;99.90
770;DHT22;368;48.698;9.116;2023-02-15T09:23:59;3.20;99.90
770;DHT22;368;48.698;9.116;2023-02-15T09:26:28;3.40;99.90
770;DHT22;368;48.698;9.116;2023-02-15T09:28:56;3.40;99.90
770;DHT22;368;48.698;9.116;2023-02-15T09:31:25;3.30;99.90
770;DHT22;368;48.698;9.116;2023-02-15T09:33:53;3.40;99.90
770;DHT22;368;48.698;9.116;2023-02-15T09:36:22;3.80;99.90
770;DHT22;368;48.698;9.116;2023-02-15T09:38:54;3.90;99.90
770;DHT22;368;48.698;9.116;2023-02-15T09:44:38;4.50;99.90
770;DHT22;368;48.698;9.116;2023-02-15T09:50:03;4.90;99.90
770;DHT22;368;48.698;9.116;2023-02-15T09:52:49;5.00;99.90
770;DHT22;368;48.698;9.116;2023-02-15T09:55:34;5.40;99.90
770;DHT22;368;48.698;9.116;2023-02-15T09:58:07;5.40;99.90
770;DHT22;368;48.698;9.116;2023-02-15T10:00:48;5.70;99.90
770;DHT22;368;48.698;9.116;2023-02-15T10:03:33;5.70;99.90
770;DHT22;368;48.698;9.116;2023-02-15T10:06:22;5.80;99.90
770;DHT22;368;48.698;9.116;2023-02-15T10:09:18;6.30;99.90
770;DHT22;368;48.698;9.116;2023-02-15T10:12:12;6.80;99.90
770;DHT22;368;48.698;9.116;2023-02-15T10:15:05;8.00;98.60
770;DHT22;368;48.698;9.116;2023-02-15T10:17:50;8.40;97.00
770;DHT22;368;48.698;9.116;2023-02-15T10:20:26;9.60;95.40
770;DHT22;368;48.698;9.116;2023-02-15T10:25:53;11.20;90.10
770;DHT22;368;48.698;9.116;2023-02-15T10:28:26;11.80;87.30
770;DHT22;368;48.698;9.116;2023-02-15T10:30:57;11.90;87.30
770;DHT22;368;48.698;9.116;2023-02-15T10:33:38;13.30;82.10
770;DHT22;368;48.698;9.116;2023-02-15T10:36:17;14.40;77.20
770;DHT22;368;48.698;9.116;2023-02-15T10:38:55;14.50;75.00
770;DHT22;368;48.698;9.116;2023-02-15T10:41:34;15.00;71.40
770;DHT22;368;48.698;9.116;2023-02-15T10:44:13;14.60;71.20
770;DHT22;368;48.698;9.116;2023-02-15T10:46:55;15.80;70.10
770;DHT22;368;48.698;9.116;2023-02-15T10:49:41;14.90;70.40
770;DHT22;368;48.698;9.116;2023-02-15T10:52:20;15.00;69.40
770;DHT22;368;48.698;9.116;2023-02-15T10:54:53;15.20;69.20
770;DHT22;368;48.698;9.116;2023-02-15T10:57:25;15.20;68.70
770;DHT22;368;48.698;9.116;2023-02-15T11:00:05;15.30;68.70
770;DHT22;368;48.698;9.116;2023-02-15T11:02:49;16.90;72.20
770;DHT22;368;48.698;9.116;2023-02-15T11:05:26;16.60;71.30
770;DHT22;368;48.698;9.116;2023-02-15T11:07:58;17.10;72.40
770;DHT22;368;48.698;9.116;2023-02-15T11:10:29;17.60;67.00
770;DHT22;368;48.698;9.116;2023-02-15T11:12:57;16.00;72.80
770;DHT22;368;48.698;9.116;2023-02-15T11:15:29;18.20;70.90
770;DHT22;368;48.698;9.116;2023-02-15T11:18:00;18.70;66.00
770;DHT22;368;48.698;9.116;2023-02-15T11:20:35;16.50;67.10
770;DHT22;368;48.698;9.116;2023-02-15T11:23:12;16.30;71.10
770;DHT22;368;48.698;9.116;2023-02-15T11:25:43;17.40;68.10
770;DHT22;368;48.698;9.116;2023-02-15T11:28:18;18.50;68.30
770;DHT22;368;48.698;9.116;2023-02-15T11:30:48;18.60;64.50
770;DHT22;368;48.698;9.116;2023-02-15T11:33:20;18.40;67.30
770;DHT22;368;48.698;9.116;2023-02-15T11:35:53;19.50;64.90
770;DHT22;368;48.698;9.116;2023-02-15T11:38:22;20.40;66.20
770;DHT22;368;48.698;9.116;2023-02-15T11:40:54;21.70;64.70
770;DHT22;368;48.698;9.116;2023-02-15T11:43:29;23.40;60.60
770;DHT22;368;48.698;9.116;2023-02-15T11:45:56;23.40;58.80
770;DHT22;368;48.698;9.116;2023-02-15T11:48:23;22.90;60.00
770;DHT22;368;48.698;9.116;2023-02-15T11:50:51;23.90;58.70
770;DHT22;368;48.698;9.116;2023-02-15T11:53:20;24.00;58.20
770;DHT22;368;48.698;9.116;2023-02-15T11:55:50;22.60;57.90
770;DHT22;368;48.698;9.116;2023-02-15T11:58:25;21.50;62.40
770;DHT22;368;48.698;9.116;2023-02-15T12:00:56;20.80;61.60
770;DHT22;368;48.698;9.116;2023-02-15T12:03:29;19.90;62.60
770;DHT22;368;48.698;9.116;2023-02-15T12:06:03;19.20;62.30
770;DHT22;368;48.698;9.116;2023-02-15T12:08:37;20.30;63.20
770;DHT22;368;48.698;9.116;2023-02-15T12:11:07;20.90;61.00
770;DHT22;368;48.698;9.116;2023-02-15T12:13:54;22.00;59.90
770;DHT22;368;48.698;9.116;2023-02-15T12:16:21;22.20;58.40
770;DHT22;368;48.698;9.116;2023-02-15T12:18:48;21.90;58.90
770;DHT22;368;48.698;9.116;2023-02-15T12:21:25;22.30;58.80
770;DHT22;368;48.698;9.116;2023-02-15T12:23:55;24.00;56.70
770;DHT22;368;48.698;9.116;2023-02-15T12:26:27;22.80;55.50
770;DHT22;368;48.698;9.116;2023-02-15T12:28:56;22.20;55.80
770;DHT22;368;48.698;9.116;2023-02-15T12:31:28;21.20;57.70
770;DHT22;368;48.698;9.116;2023-02-15T12:34:00;21.30;58.80
770;DHT22;368;48.698;9.116;2023-02-15T12:36:33;22.90;56.10
770;DHT22;368;48.698;9.116;2023-02-15T12:39:19;21.50;58.70
770;DHT22;368;48.698;9.116;2023-02-15T12:41:56;22.00;57.30
770;DHT22;368;48.698;9.116;2023-02-15T12:44:25;23.10;55.20
770;DHT22;368;48.698;9.116;2023-02-15T12:46:59;21.30;56.30
770;DHT22;368;48.698;9.116;2023-02-15T12:49:27;22.10;56.50
770;DHT22;368;48.698;9.116;2023-02-15T12:51:56;23.30;55.80
770;DHT22;368;48.698;9.116;2023-02-15T12:54:35;21.40;53.60
770;DHT22;368;48.698;9.116;2023-02-15T12:57:17;21.50;57.00
770;DHT22;368;48.698;9.116;2023-02-15T12:59:48;22.40;52.90
770;DHT22;368;48.698;9.116;2023-02-15T13:02:21;23.00;53.60
770;DHT22;368;48.698;9.116;2023-02-15T13:04:49;22.20;52.40
770;DHT22;368;48.698;9.116;2023-02-15T13:07:18;23.10;52.30
770;DHT22;368;48.698;9.116;2023-02-15T13:09:46;24.10;49.10
770;DHT22;368;48.698;9.116;2023-02-15T13:12:18;23.20;49.60
770;DHT22;368;48.698;9.116;2023-02-15T13:14:48;23.80;48.70
770;DHT22;368;48.698;9.116;2023-02-15T13:17:18;24.70;49.00
770;DHT22;368;48.698;9.116;2023-02-15T13:19:48;23.70;49.60
770;DHT22;368;48.698;9.116;2023-02-15T13:22:21;23.30;50.50
770;DHT22;368;48.698;9.116;2023-02-15T13:24:53;22.60;52.10
770;DHT22;368;48.698;9.116;2023-02-15T13:27:22;23.30;51.80
770;DHT22;368;48.698;9.116;2023-02-15T13:29:51;22.30;52.30
770;DHT22;368;48.698;9.116;2023-02-15T13:32:26;21.80;53.00
770;DHT22;368;48.698;9.116;2023-02-15T13:34:57;22.50;53.90
770;DHT22;368;48.698;9.116;2023-02-15T13:40:22;21.30;54.80
770;DHT22;368;48.698;9.116;2023-02-15T13:42:55;22.10;54.00
770;DHT22;368;48.698;9.116;2023-02-15T13:45:37;21.90;54.90
770;DHT22;368;48.698;9.116;2023-02-15T13:48:15;22.70;54.30
770;DHT22;368;48.698;9.116;2023-02-15T13:50:56;22.30;54.90
770;DHT22;368;48.698;9.116;2023-02-15T13:53:43;22.30;54.20
770;DHT22;368;48.698;9.116;2023-02-15T13:56:17;22.00;54.00
770;DHT22;368;48.698;9.116;2023-02-15T13:59:07;22.40;54.40
770;DHT22;368;48.698;9.116;2023-02-15T14:01:44;20.90;54.70
770;DHT22;368;48.698;9.116;2023-02-15T14:04:51;20.80;56.10
770;DHT22;368;48.698;9.116;2023-02-15T14:07:35;22.00;55.40
770;DHT22;368;48.698;9.116;2023-02-15T14:10:22;21.30;55.70
770;DHT22;368;48.698;9.116;2023-02-15T14:13:23;21.50;55.80
770;DHT22;368;48.698;9.116;2023-02-15T14:15:58;22.00;53.80
770;DHT22;368;48.698;9.116;2023-02-15T14:18:33;20.40;56.20
770;DHT22;368;48.698;9.116;2023-02-15T14:21:06;20.10;58.10
770;DHT22;368;48.698;9.116;2023-02-15T14:23:47;20.70;57.50
770;DHT22;368;48.698;9.116;2023-02-15T14:26:25;21.20;55.70
770;DHT22;368;48.698;9.116;2023-02-15T14:29:01;20.50;56.90
770;DHT22;368;48.698;9.116;2023-02-15T14:31:36;19.90;56.60
770;DHT22;368;48.698;9.116;2023-02-15T14:34:08;20.60;55.80
770;DHT22;368;48.698;9.116;2023-02-15T14:36:39;19.90;56.30
770;DHT22;368;48.698;9.116;2023-02-15T14:39:15;20.40;55.70
770;DHT22;368;48.698;9.116;2023-02-15T14:42:07;20.60;53.30
770;DHT22;368;48.698;9.116;2023-02-15T14:44:38;19.60;53.20
770;DHT22;368;48.698;9.116;2023-02-15T14:47:11;19.50;54.10
770;DHT22;368;48.698;9.116;2023-02-15T14:49:40;20.50;53.80
770;DHT22;368;48.698;9.116;2023-02-15T14:52:07;21.70;52.30
770;DHT22;368;48.698;9.116;2023-02-15T14:54:55;21.60;51.00
770;DHT22;368;48.698;9.116;2023-02-15T14:57:29;22.30;50.00
770;DHT22;368;48.698;9.116;2023-02-15T14:59:58;22.00;50.90
770;DHT22;368;48.698;9.116;2023-02-15T15:02:28;22.30;50.80
770;DHT22;368;48.698;9.116;2023-02-15T15:05:08;21.50;50.30
770;DHT22;368;48.698;9.116;2023-02-15T15:07:42;19.20;52.30
770;DHT22;368;48.698;9.116;2023-02-15T15:10:33;18.70;54.70
770;DHT22;368;48.698;9.116;2023-02-15T15:13:35;19.20;54.00
770;DHT22;368;48.698;9.116;2023-02-15T15:16:29;20.20;53.40
770;DHT22;368;48.698;9.116;2023-02-15T15:18:58;20.60;53.30
770;DHT22;368;48.698;9.116;2023-02-15T15:21:56;20.70;53.50
770;DHT22;368;48.698;9.116;2023-02-15T15:24:48;20.60;49.80
770;DHT22;368;48.698;9.116;2023-02-15T15:27:38;20.30;49.10
770;DHT22;368;48.698;9.116;2023-02-15T15:33:18;16.90;54.30
770;DHT22;368;48.698;9.116;2023-02-15T15:35:58;16.00;55.60
770;DHT22;368;48.698;9.116;2023-02-15T15:38:39;16.80;55.80
770;DHT22;368;48.698;9.116;2023-02-15T15:41:17;17.00;56.20
770;DHT22;368;48.698;9.116;2023-02-15T15:47:29;18.20;55.30
770;DHT22;368;48.698;9.116;2023-02-15T15:50:10;18.40;55.30
770;DHT22;368;48.698;9.116;2023-02-15T15:52:38;18.30;56.20
770;DHT22;368;48.698;9.116;2023-02-15T15:55:14;18.10;57.20
770;DHT22;368;48.698;9.116;2023-02-15T15:57:43;17.70;58.30
770;DHT22;368;48.698;9.116;2023-02-15T16:00:28;16.00;59.90
770;DHT22;368;48.698;9.116;2023-02-15T16:02:57;15.30;62.00
770;DHT22;368;48.698;9.116;2023-02-15T16:05:25;13.40;65.60
770;DHT22;368;48.698;9.116;2023-02-15T16:07:52;13.00;68.70
770;DHT22;368;48.698;9.116;2023-02-15T16:10:21;12.70;69.50
770;DHT22;368;48.698;9.116;2023-02-15T16:12:49;12.10;71.60
770;DHT22;368;48.698;9.116;2023-02-15T16:15:19;11.20;73.20
770;DHT22;368;48.698;9.116;2023-02-15T16:17:50;10.80;75.10
770;DHT22;368;48.698;9.116;2023-02-15T16:20:23;10.30;76.10
770;DHT22;368;48.698;9.116;2023-02-15T16:22:57;9.90;79.70
770;DHT22;368;48.698;9.116;2023-02-15T16:25:34;9.80;81.60
770;DHT22;368;48.698;9.116;2023-02-15T16:28:10;9.50;81.00
770;DHT22;368;48.698;9.116;2023-02-15T16:30:38;9.40;83.40
770;DHT22;368;48.698;9.116;2023-02-15T16:33:07;8.70;83.10
770;DHT22;368;48.698;9.116;2023-02-15T16:35:35;9.10;83.80
770;DHT22;368;48.698;9.116;2023-02-15T16:38:04;9.10;83.50
770;DHT22;368;48.698;9.116;2023-02-15T16:40:46;8.60;83.50
770;DHT22;368;48.698;9.116;2023-02-15T16:43:16;8.30;85.50
770;DHT22;368;48.698;9.116;2023-02-15T16:45:45;8.20;87.80
770;DHT22;368;48.698;9.116;2023-02-15T16:48:16;8.00;87.90
770;DHT22;368;48.698;9.116;2023-02-15T16:50:48;8.00;87.60
770;DHT22;368;48.698;9.116;2023-02-15T16:53:20;7.60;86.50
770;DHT22;368;48.698;9.116;2023-02-15T16:55:50;7.70;86.90
770;DHT22;368;48.698;9.116;2023-02-15T16:58:22;7.80;87.90
770;DHT22;368;48.698;9.116;2023-02-15T17:00:50;7.30;88.90
770;DHT22;368;48.698;9.116;2023-02-15T17:03:21;7.10;90.00
770;DHT22;368;48.698;9.116;2023-02-15T17:05:50;7.00;90.80
770;DHT22;368;48.698;9.116;2023-02-15T17:08:25;6.50;91.60
770;DHT22;368;48.698;9.116;2023-02-15T17:11:11;6.40;92.60
770;DHT22;368;48.698;9.116;2023-02-15T17:13:38;6.30;93.50
770;DHT22;368;48.698;9.116;2023-02-15T17:16:30;6.20;94.10
770;DHT22;368;48.698;9.116;2023-02-15T17:19:00;5.90;95.30
770;DHT22;368;48.698;9.116;2023-02-15T17:21:31;5.70;95.80
770;DHT22;368;48.698;9.116;2023-02-15T17:24:01;5.60;96.70
770;DHT22;368;48.698;9.116;2023-02-15T17:26:31;5.50;97.20
770;DHT22;368;48.698;9.116;2023-02-15T17:29:01;5.40;97.60
770;DHT22;368;48.698;9.116;2023-02-15T17:31:31;5.40;98.70
770;DHT22;368;48.698;9.116;2023-02-15T17:33:59;5.10;99.30